Time;durP1;ratioP1;P1;durP2;ratioP2;P2;SDS_P1;SDS_P2;PMS_P1;PMS_P2;Temp;Humidity;BMP_temperature;BMP_pressure;BME280_temperature;BME280_humidity;BME280_pressure;Samples;Min_cycle;Max_cycle;Signal;HPM_P1;HPM_P2
2021/12/09 00:01:21;;;;;;;43.97;24.60;;;;;;;3.08;85.26;99269.59;5073232;28;21004;-68
2021/12/09 00:03:51;;;;;;;39.10;23.07;;;;;;;3.01;85.89;99265.91;5073479;28;20466;-68
2021/12/09 00:06:22;;;;;;;42.63;25.83;;;;;;;2.96;85.98;99270.81;5073058;28;20434;-68
2021/12/09 00:08:49;;;;;;;45.77;24.37;;;;;;;2.90;86.91;99265.34;5073047;28;20987;-68
2021/12/09 00:11:16;;;;;;;45.47;25.20;;;;;;;2.88;87.74;99270.75;5072902;28;20488;-68
2021/12/09 00:13:43;;;;;;;47.00;25.60;;;;;;;2.86;87.62;99269.25;5073123;28;20555;-68
2021/12/09 00:16:09;;;;;;;44.53;26.20;;;;;;;2.91;87.44;99267.00;5072864;28;20499;-68
2021/12/09 00:18:36;;;;;;;45.30;25.73;;;;;;;2.90;86.12;99276.66;5072824;28;20499;-68
2021/12/09 00:21:04;;;;;;;45.97;24.50;;;;;;;2.84;86.51;99268.56;5073176;28;20496;-68
2021/12/09 00:23:31;;;;;;;41.23;25.37;;;;;;;2.86;86.48;99277.94;5073845;28;20442;-68
2021/12/09 00:25:58;;;;;;;40.67;24.80;;;;;;;2.83;86.60;99275.63;5073561;28;20434;-68
2021/12/09 00:28:25;;;;;;;42.03;23.80;;;;;;;2.86;86.92;99280.56;5072650;28;20460;-68
2021/12/09 00:30:51;;;;;;;37.07;22.37;;;;;;;2.88;86.13;99283.88;5072924;28;20434;-68
2021/12/09 00:33:18;;;;;;;36.87;23.50;;;;;;;2.88;85.88;99283.88;5072272;28;20478;-67
2021/12/09 00:35:49;;;;;;;34.50;23.33;;;;;;;2.89;87.43;99288.13;5072822;28;20434;-67
2021/12/09 00:38:22;;;;;;;37.03;22.57;;;;;;;2.74;86.75;99281.78;5072559;28;20477;-68
2021/12/09 00:40:50;;;;;;;36.97;23.67;;;;;;;2.70;87.43;99290.91;5073109;28;20434;-67
2021/12/09 00:43:20;;;;;;;36.57;22.80;;;;;;;2.57;87.69;99290.47;5072710;28;20511;-67
2021/12/09 00:45:47;;;;;;;34.90;21.37;;;;;;;2.65;88.22;99305.47;5072942;28;20485;-67
2021/12/09 00:48:13;;;;;;;34.77;23.33;;;;;;;2.70;86.76;99311.09;5072602;28;20434;-68
2021/12/09 00:50:42;;;;;;;33.60;21.60;;;;;;;2.71;86.46;99303.06;5072604;28;20499;-67
2021/12/09 00:53:10;;;;;;;33.50;22.30;;;;;;;2.74;86.44;99294.88;5073052;28;20478;-67
2021/12/09 00:55:38;;;;;;;34.17;22.50;;;;;;;2.73;87.51;99305.56;5072249;28;20442;-67
2021/12/09 00:58:05;;;;;;;33.77;22.97;;;;;;;2.73;87.28;99301.09;5072189;28;20442;-67
2021/12/09 01:00:32;;;;;;;33.17;23.30;;;;;;;2.71;86.34;99304.84;5073006;28;20437;-67
2021/12/09 01:03:00;;;;;;;35.60;21.20;;;;;;;2.65;86.13;99302.84;5072150;28;20472;-68
2021/12/09 01:05:28;;;;;;;30.70;20.63;;;;;;;2.56;87.07;99304.56;5072337;28;20442;-67
2021/12/09 01:07:56;;;;;;;33.60;21.67;;;;;;;2.53;87.82;99298.81;5072391;28;20527;-68
2021/12/09 01:10:24;;;;;;;32.43;22.10;;;;;;;2.60;87.32;99305.91;5072049;28;20441;-67
2021/12/09 01:12:52;;;;;;;31.00;21.83;;;;;;;2.57;86.59;99300.97;5072243;28;20445;-68
2021/12/09 01:15:20;;;;;;;37.17;23.40;;;;;;;2.53;86.78;99302.25;5073131;28;20499;-68
2021/12/09 01:17:47;;;;;;;33.37;21.93;;;;;;;2.55;87.30;99295.06;5072314;28;20495;-67
2021/12/09 01:20:16;;;;;;;34.33;22.87;;;;;;;2.57;87.80;99300.97;5071924;28;20442;-67
2021/12/09 01:22:45;;;;;;;32.87;21.30;;;;;;;2.55;87.64;99305.56;5071460;28;20438;-67
2021/12/09 01:25:14;;;;;;;33.40;21.10;;;;;;;2.57;87.77;99300.16;5072173;28;20434;-68
2021/12/09 01:27:42;;;;;;;35.57;21.03;;;;;;;2.50;86.96;99294.69;5071857;28;20941;-68
2021/12/09 01:30:15;;;;;;;32.87;21.03;;;;;;;2.45;87.18;99291.69;5072151;28;20444;-68
2021/12/09 01:32:48;;;;;;;35.97;20.37;;;;;;;2.42;87.65;99289.38;5072385;28;20425;-68
2021/12/09 01:35:15;;;;;;;31.50;19.77;;;;;;;2.36;88.30;99282.09;5071803;28;20428;-68
2021/12/09 01:37:42;;;;;;;33.20;20.30;;;;;;;2.34;88.80;99283.22;5071780;28;20438;-68
2021/12/09 01:40:10;;;;;;;28.63;20.20;;;;;;;2.40;88.22;99280.81;5071767;28;20437;-68
2021/12/09 01:42:37;;;;;;;32.10;21.13;;;;;;;2.49;88.26;99276.50;5071765;28;20438;-68
2021/12/09 01:45:05;;;;;;;34.37;20.63;;;;;;;2.52;88.10;99271.75;5071499;28;20486;-68
2021/12/09 01:47:33;;;;;;;31.53;20.73;;;;;;;2.57;88.53;99277.38;5072510;28;20442;-68
2021/12/09 01:50:00;;;;;;;28.43;20.03;;;;;;;2.61;87.75;99276.09;5071981;28;20499;-68
2021/12/09 01:52:27;;;;;;;37.70;20.63;;;;;;;2.64;87.19;99277.59;5071935;28;20499;-68
2021/12/09 01:54:53;;;;;;;36.87;20.73;;;;;;;2.63;87.32;99258.44;5071590;28;20899;-68
2021/12/09 01:57:20;;;;;;;35.97;20.13;;;;;;;2.63;86.35;99261.06;5072068;28;20492;-68
2021/12/09 01:59:48;;;;;;;33.80;20.53;;;;;;;2.62;87.94;99258.59;5071559;28;20941;-68
2021/12/09 02:02:15;;;;;;;28.03;19.97;;;;;;;2.65;86.88;99245.19;5071539;28;20933;-68
2021/12/09 02:04:43;;;;;;;29.47;20.20;;;;;;;2.67;86.86;99243.22;5071793;28;20441;-68
2021/12/09 02:07:11;;;;;;;28.40;20.40;;;;;;;2.63;86.37;99236.63;5071835;28;20631;-68
2021/12/09 02:09:38;;;;;;;34.13;21.17;;;;;;;2.68;86.95;99250.94;5072583;28;20495;-68
2021/12/09 02:12:06;;;;;;;30.33;20.47;;;;;;;2.65;85.74;99239.94;5072287;28;20438;-68
2021/12/09 02:14:32;;;;;;;34.27;21.07;;;;;;;2.62;85.54;99229.75;5071309;28;21082;-68
2021/12/09 02:16:59;;;;;;;31.57;20.70;;;;;;;2.58;86.85;99228.41;5071425;28;20442;-68
2021/12/09 02:19:26;;;;;;;34.97;21.80;;;;;;;2.49;86.40;99229.31;5072254;28;20434;-68
2021/12/09 02:21:54;;;;;;;34.97;21.77;;;;;;;2.38;87.66;99227.75;5071668;28;20438;-69
2021/12/09 02:24:21;;;;;;;38.40;23.77;;;;;;;2.36;87.40;99229.69;5071306;28;20442;-68
2021/12/09 02:26:50;;;;;;;35.27;21.80;;;;;;;2.36;87.11;99232.31;5071892;28;20440;-68
2021/12/09 02:29:18;;;;;;;31.83;21.13;;;;;;;2.40;88.31;99232.81;5071324;28;20434;-68
2021/12/09 02:31:46;;;;;;;35.23;22.40;;;;;;;2.44;87.75;99237.63;5071272;28;20434;-68
2021/12/09 02:34:13;;;;;;;34.47;21.30;;;;;;;2.47;87.84;99237.31;5072421;28;20473;-68
2021/12/09 02:36:42;;;;;;;37.10;23.93;;;;;;;2.46;87.62;99240.94;5074835;28;20438;-68
2021/12/09 02:39:13;;;;;;;39.63;22.83;;;;;;;2.45;87.10;99244.50;5074762;28;20433;-68
2021/12/09 02:41:40;;;;;;;38.37;22.10;;;;;;;2.29;87.90;99249.59;5074743;28;20434;-68
2021/12/09 02:44:10;;;;;;;35.40;22.90;;;;;;;2.18;88.02;99257.69;5075263;28;20495;-68
2021/12/09 02:46:38;;;;;;;33.13;21.80;;;;;;;2.15;88.59;99263.22;5074948;28;20442;-68
2021/12/09 02:49:07;;;;;;;32.93;22.07;;;;;;;2.21;88.94;99257.38;5074600;28;20511;-68
2021/12/09 02:51:36;;;;;;;35.63;21.03;;;;;;;2.27;88.20;99255.97;5075074;28;20495;-69
2021/12/09 02:54:04;;;;;;;32.47;21.23;;;;;;;2.29;87.71;99254.84;5074760;28;20473;-68
2021/12/09 02:56:32;;;;;;;31.90;21.53;;;;;;;2.32;87.80;99246.69;5074492;28;20949;-68
2021/12/09 02:58:59;;;;;;;29.43;20.27;;;;;;;2.33;88.07;99256.19;5074699;28;20507;-69
2021/12/09 03:01:33;;;;;;;35.83;22.30;;;;;;;2.33;87.79;99260.63;5074375;28;20442;-68
2021/12/09 03:04:02;;;;;;;39.67;21.47;;;;;;;2.34;87.82;99263.09;5074685;28;20852;-68
2021/12/09 03:06:33;;;;;;;33.30;20.90;;;;;;;2.35;87.69;99269.97;5074821;28;20474;-68
2021/12/09 03:09:02;;;;;;;29.63;20.87;;;;;;;2.33;87.67;99279.78;5075398;28;20431;-68
2021/12/09 03:11:29;;;;;;;32.70;21.53;;;;;;;2.28;87.58;99273.34;5074417;28;20949;-69
2021/12/09 03:14:01;;;;;;;36.83;22.00;;;;;;;2.25;87.59;99282.31;5074057;28;21000;-68
2021/12/09 03:16:29;;;;;;;30.27;21.50;;;;;;;2.23;88.25;99283.44;5074175;28;20488;-68
2021/12/09 03:18:59;;;;;;;32.93;22.07;;;;;;;2.22;88.23;99289.66;5074051;28;20852;-68
2021/12/09 03:21:29;;;;;;;30.23;21.83;;;;;;;2.15;88.28;99286.81;5074603;28;20426;-68
2021/12/09 03:23:57;;;;;;;37.03;22.57;;;;;;;2.08;89.10;99282.31;5074311;28;20859;-68
2021/12/09 03:26:29;;;;;;;36.77;22.73;;;;;;;2.02;88.86;99275.03;5074301;28;20438;-68
2021/12/09 03:29:00;;;;;;;49.07;31.20;;;;;;;2.00;90.48;99280.41;5073835;28;20813;-68
2021/12/09 03:31:28;;;;;;;55.00;31.60;;;;;;;2.05;89.88;99286.06;5074460;28;20495;-68
2021/12/09 03:33:54;;;;;;;42.50;25.63;;;;;;;2.01;89.00;99282.09;5074297;28;20554;-68
2021/12/09 03:36:25;;;;;;;37.97;25.00;;;;;;;1.91;89.39;99275.25;5074018;28;20464;-68
2021/12/09 03:38:52;;;;;;;39.23;25.30;;;;;;;1.84;88.74;99274.19;5074560;28;20441;-68
2021/12/09 03:41:19;;;;;;;34.33;23.77;;;;;;;1.85;89.12;99276.66;5074191;28;20495;-67
2021/12/09 03:43:46;;;;;;;32.63;23.07;;;;;;;1.89;89.49;99272.78;5074079;28;20816;-67
2021/12/09 03:46:14;;;;;;;47.27;29.60;;;;;;;1.84;88.47;99275.00;5073852;28;20539;-67
2021/12/09 03:48:41;;;;;;;43.37;25.97;;;;;;;1.76;89.33;99282.75;5073699;28;20484;-68
2021/12/09 03:51:08;;;;;;;40.73;25.57;;;;;;;1.76;90.17;99290.59;5074009;28;20438;-68
2021/12/09 03:53:34;;;;;;;38.93;23.27;;;;;;;1.84;89.92;99293.31;5073275;28;20450;-68
2021/12/09 03:56:01;;;;;;;49.07;27.17;;;;;;;1.89;89.85;99296.34;5074140;28;20434;-68
2021/12/09 03:58:28;;;;;;;45.63;26.97;;;;;;;1.94;90.36;99288.03;5074379;28;20503;-68
2021/12/09 04:00:55;;;;;;;41.80;25.20;;;;;;;1.98;88.93;99299.88;5073709;28;20809;-68
2021/12/09 04:03:23;;;;;;;36.80;23.93;;;;;;;2.02;88.67;99311.69;5073621;28;20545;-68
2021/12/09 04:05:51;;;;;;;32.17;22.13;;;;;;;2.05;88.06;99298.31;5073435;28;20508;-68
2021/12/09 04:08:19;;;;;;;39.23;23.73;;;;;;;2.03;87.84;99293.22;5073058;28;20514;-68
2021/12/09 04:10:46;;;;;;;33.33;22.73;;;;;;;1.97;87.30;99290.38;5073285;28;20495;-68
2021/12/09 04:13:13;;;;;;;39.50;22.77;;;;;;;1.86;87.67;99282.69;5073322;28;20492;-68
2021/12/09 04:15:40;;;;;;;34.47;22.10;;;;;;;1.77;89.39;99273.13;5072616;28;20469;-68
2021/12/09 04:18:08;;;;;;;40.50;22.43;;;;;;;1.86;89.08;99293.19;5073130;28;20438;-68
2021/12/09 04:20:37;;;;;;;39.73;23.37;;;;;;;1.86;89.19;99288.78;5073523;28;20438;-69
2021/12/09 04:23:05;;;;;;;38.23;25.80;;;;;;;1.83;88.42;99294.28;5073907;28;20523;-68
2021/12/09 04:25:32;;;;;;;39.03;23.23;;;;;;;1.71;89.58;99285.00;5072694;28;20460;-68
2021/12/09 04:27:59;;;;;;;49.47;29.20;;;;;;;1.69;90.21;99281.72;5072577;28;20442;-68
2021/12/09 04:30:29;;;;;;;51.83;28.87;;;;;;;1.70;90.59;99277.28;5072606;28;20861;-68
2021/12/09 04:32:56;;;;;;;60.80;31.70;;;;;;;1.74;90.00;99295.19;5073052;28;20583;-68
2021/12/09 04:35:22;;;;;;;48.23;29.53;;;;;;;1.71;89.85;99290.22;5073310;28;20550;-68
2021/12/09 04:37:51;;;;;;;40.43;24.93;;;;;;;1.68;90.20;99295.78;5072805;28;20435;-67
2021/12/09 04:40:18;;;;;;;40.10;23.83;;;;;;;1.72;89.40;99291.88;5072727;28;20515;-68
2021/12/09 04:42:45;;;;;;;42.13;24.40;;;;;;;1.74;88.76;99305.66;5072173;28;20438;-67
2021/12/09 04:45:13;;;;;;;36.20;22.10;;;;;;;1.76;89.40;99298.47;5072167;28;20473;-67
2021/12/09 04:47:40;;;;;;;39.40;23.63;;;;;;;1.76;88.42;99306.31;5072285;28;21016;-67
2021/12/09 04:50:08;;;;;;;39.37;23.50;;;;;;;1.76;89.18;99314.16;5072201;28;20442;-68
2021/12/09 04:52:35;;;;;;;39.50;21.80;;;;;;;1.75;89.40;99320.38;5072975;28;20445;-67
2021/12/09 04:55:06;;;;;;;43.77;23.20;;;;;;;1.70;88.55;99327.84;5072089;28;21036;-67
2021/12/09 04:57:32;;;;;;;36.37;22.33;;;;;;;1.69;88.97;99318.34;5072833;28;20491;-68
2021/12/09 05:00:00;;;;;;;46.53;24.20;;;;;;;1.72;89.91;99319.84;5072369;28;20496;-67
2021/12/09 05:02:32;;;;;;;42.40;25.07;;;;;;;1.66;90.05;99318.63;5072376;28;20442;-67
2021/12/09 05:04:59;;;;;;;53.03;28.20;;;;;;;1.62;91.33;99322.50;5072807;28;20456;-68
2021/12/09 05:07:25;;;;;;;47.47;26.30;;;;;;;1.65;90.52;99321.38;5072060;28;20434;-67
2021/12/09 05:09:53;;;;;;;112.33;61.33;;;;;;;1.61;90.38;99315.63;5071608;28;20458;-69
2021/12/09 05:12:22;;;;;;;68.13;36.23;;;;;;;1.69;90.07;99312.28;5071936;28;20536;-70
2021/12/09 05:14:49;;;;;;;64.40;36.20;;;;;;;1.72;90.02;99312.81;5071898;28;21057;-68
2021/12/09 05:17:17;;;;;;;67.83;34.23;;;;;;;1.73;90.06;99311.84;5072232;28;20434;-69
2021/12/09 05:19:45;;;;;;;52.10;28.13;;;;;;;1.67;89.49;99315.03;5071832;28;20468;-68
2021/12/09 05:22:12;;;;;;;41.43;25.07;;;;;;;1.66;90.22;99317.78;5072131;28;20446;-70
2021/12/09 05:24:40;;;;;;;39.03;24.30;;;;;;;1.64;90.64;99324.97;5071814;28;20949;-70
2021/12/09 05:27:09;;;;;;;41.20;23.93;;;;;;;1.63;89.97;99329.38;5071813;28;20446;-72
2021/12/09 05:29:39;;;;;;;39.13;24.10;;;;;;;1.66;89.35;99336.94;5061372;28;20541;-72
2021/12/09 05:32:11;;;;;;;46.97;26.57;;;;;;;1.77;92.65;99336.78;5068499;28;20438;-70
2021/12/09 05:34:40;;;;;;;44.87;23.53;;;;;;;1.77;92.01;99331.53;5071535;28;21073;-70
2021/12/09 05:37:08;;;;;;;43.07;23.20;;;;;;;1.74;90.92;99346.69;5072003;28;20441;-72
2021/12/09 05:39:36;;;;;;;38.87;23.60;;;;;;;1.67;90.25;99351.69;5071976;28;20503;-74
2021/12/09 05:42:04;;;;;;;39.03;22.90;;;;;;;1.58;89.99;99349.94;5072111;28;20442;-72
2021/12/09 05:44:31;;;;;;;46.63;26.23;;;;;;;1.34;90.50;99359.25;5071543;28;20477;-72
2021/12/09 05:47:02;;;;;;;45.67;23.20;;;;;;;1.33;91.61;99362.81;5071482;28;20859;-73
2021/12/09 05:49:28;;;;;;;40.40;24.33;;;;;;;1.30;91.91;99353.44;5071932;28;20430;-72
2021/12/09 05:51:55;;;;;;;67.90;25.63;;;;;;;1.35;92.11;99359.06;5072414;28;20437;-74
2021/12/09 05:54:22;;;;;;;44.37;26.80;;;;;;;1.40;91.46;99349.03;5072559;28;20844;-73
2021/12/09 05:56:50;;;;;;;42.27;25.67;;;;;;;1.53;90.95;99365.25;5071402;28;20442;-80
2021/12/09 05:59:17;;;;;;;58.20;31.67;;;;;;;1.60;90.83;99374.19;5072026;28;20526;-74
2021/12/09 06:01:44;;;;;;;60.87;33.67;;;;;;;1.66;91.21;99365.75;5069011;28;20956;-77
2021/12/09 06:04:12;;;;;;;66.17;31.20;;;;;;;1.84;90.33;99371.06;5071297;28;20442;-77
2021/12/09 06:06:41;;;;;;;54.03;31.77;;;;;;;1.80;89.83;99344.31;5070988;28;20941;-72
2021/12/09 06:09:10;;;;;;;51.07;27.40;;;;;;;2.09;88.83;99375.63;5070686;28;20430;-77
2021/12/09 06:11:37;;;;;;;30.57;20.70;;;;;;;1.93;87.26;99378.88;5075132;28;20445;-73
2021/12/09 06:14:05;;;;;;;46.00;22.63;;;;;;;1.89;89.00;99382.75;5075144;28;20511;-70
2021/12/09 06:16:33;;;;;;;46.90;23.20;;;;;;;1.82;88.41;99388.69;5068329;28;20474;-70
2021/12/09 06:19:00;;;;;;;34.23;21.53;;;;;;;1.76;88.83;99402.38;5073854;28;20442;-71
2021/12/09 06:21:28;;;;;;;35.00;20.80;;;;;;;1.90;89.67;99396.66;5073809;28;20438;-69
2021/12/09 06:23:55;;;;;;;33.03;20.30;;;;;;;2.14;88.47;99408.28;5072072;28;20498;-68
2021/12/09 06:26:22;;;;;;;32.93;19.57;;;;;;;2.09;87.42;99410.53;5055161;28;20942;-70
2021/12/09 06:28:49;;;;;;;25.03;17.47;;;;;;;2.25;87.79;99410.69;5054851;28;21011;-69
2021/12/09 06:31:17;;;;;;;31.07;18.73;;;;;;;2.54;87.06;99411.38;5054813;28;21099;-69
2021/12/09 06:33:44;;;;;;;27.70;18.63;;;;;;;2.81;85.53;99419.19;5063451;28;20503;-70
2021/12/09 06:36:10;;;;;;;30.43;20.20;;;;;;;2.91;83.42;99427.81;5059530;28;20465;-75
2021/12/09 06:38:39;;;;;;;27.03;19.13;;;;;;;2.93;83.20;99425.88;5073604;28;20541;-75
2021/12/09 06:41:08;;;;;;;29.43;19.40;;;;;;;3.02;83.02;99426.78;5064639;28;20442;-82
2021/12/09 06:43:37;;;;;;;28.17;18.83;;;;;;;3.14;82.84;99421.13;5055107;28;20441;-73
2021/12/09 06:46:06;;;;;;;30.23;18.47;;;;;;;3.24;82.73;99416.66;5055487;28;20482;-69
2021/12/09 06:48:33;;;;;;;29.13;19.83;;;;;;;3.49;82.53;99410.59;5055466;28;20454;-71
2021/12/09 06:51:01;;;;;;;29.17;20.50;;;;;;;3.66;81.92;99401.84;5060103;28;20438;-72
2021/12/09 06:53:28;;;;;;;35.03;19.77;;;;;;;3.86;80.22;99407.72;5054482;28;20461;-71
2021/12/09 06:55:56;;;;;;;29.87;22.07;;;;;;;3.79;78.75;99393.53;5064015;28;20543;-68
2021/12/09 06:58:24;;;;;;;53.67;27.33;;;;;;;3.72;80.37;99385.47;5057759;28;20442;-68
2021/12/09 07:00:51;;;;;;;47.90;26.93;;;;;;;3.96;79.32;99392.69;5054575;28;20253;-68
2021/12/09 07:03:21;;;;;;;45.73;26.70;;;;;;;4.32;77.00;99400.22;5090511;28;20449;-69
2021/12/09 07:05:48;;;;;;;36.60;21.90;;;;;;;4.24;77.47;99408.06;5079738;28;20203;-68
2021/12/09 07:08:15;;;;;;;27.23;18.27;;;;;;;4.08;77.37;99402.75;5054438;28;20242;-68
2021/12/09 07:10:43;;;;;;;29.13;19.77;;;;;;;4.24;77.85;99397.56;5063288;28;20257;-68
2021/12/09 07:13:11;;;;;;;31.07;20.13;;;;;;;4.71;76.45;99392.59;5074522;28;20196;-68
2021/12/09 07:15:38;;;;;;;28.20;19.43;;;;;;;5.41;74.40;99399.91;5074000;28;20273;-68
2021/12/09 07:18:06;;;;;;;27.73;20.23;;;;;;;5.63;72.96;99405.31;5073909;28;20245;-68
2021/12/09 07:20:33;;;;;;;35.07;21.97;;;;;;;5.90;71.97;99409.41;5073261;28;20273;-69
2021/12/09 07:23:00;;;;;;;37.40;21.57;;;;;;;6.16;71.22;99419.72;5073524;28;20194;-69
2021/12/09 07:25:28;;;;;;;26.90;19.83;;;;;;;6.33;69.96;99429.22;5056886;28;20197;-69
2021/12/09 07:27:55;;;;;;;26.87;19.83;;;;;;;6.39;69.74;99428.53;5064331;28;20246;-68
2021/12/09 07:30:25;;;;;;;29.80;20.40;;;;;;;6.49;69.53;99429.16;5072680;28;20268;-69
2021/12/09 07:32:52;;;;;;;25.27;16.50;;;;;;;6.71;75.50;99402.00;5074167;28;20255;-70
2021/12/09 07:35:19;;;;;;;38.10;22.53;;;;;;;7.47;77.19;99413.34;5073716;28;20230;-69
2021/12/09 07:37:46;;;;;;;32.00;22.07;;;;;;;7.87;67.12;99427.00;5073944;28;20188;-71
2021/12/09 07:40:17;;;;;;;27.83;18.70;;;;;;;7.81;68.00;99429.53;5073417;28;20198;-71
2021/12/09 07:42:44;;;;;;;28.50;21.43;;;;;;;7.92;65.57;99431.75;5074518;28;20249;-72
2021/12/09 07:45:12;;;;;;;28.50;20.73;;;;;;;7.81;65.46;99435.66;5070374;28;20336;-69
2021/12/09 07:47:41;;;;;;;36.40;20.33;;;;;;;7.97;70.73;99410.88;5073092;28;20234;-71
2021/12/09 07:50:11;;;;;;;27.03;20.60;;;;;;;8.38;66.26;99409.44;5073648;28;20254;-72
2021/12/09 07:52:38;;;;;;;26.10;20.07;;;;;;;9.21;66.07;99422.03;5073160;28;20279;-76
2021/12/09 07:55:05;;;;;;;29.27;20.40;;;;;;;10.16;58.93;99445.28;5072939;28;20328;-74
2021/12/09 07:57:33;;;;;;;27.80;20.33;;;;;;;10.52;56.41;99440.59;5073345;28;20253;-76
2021/12/09 08:00:00;;;;;;;26.40;18.40;;;;;;;10.73;53.71;99440.47;5073575;28;20245;-79
2021/12/09 08:02:27;;;;;;;43.10;21.07;;;;;;;10.75;54.63;99429.66;5072818;28;20192;-78
2021/12/09 08:04:55;;;;;;;33.37;22.27;;;;;;;10.75;51.52;99433.13;5073354;28;20222;-75
2021/12/09 08:07:22;;;;;;;46.50;21.40;;;;;;;10.45;53.11;99422.97;5073317;28;20245;-71
2021/12/09 08:09:48;;;;;;;25.67;20.60;;;;;;;10.08;54.19;99415.41;5073206;28;20202;-73
2021/12/09 08:12:15;;;;;;;28.87;21.93;;;;;;;9.41;56.46;99411.59;5073093;28;20196;-71
2021/12/09 08:14:42;;;;;;;31.20;21.53;;;;;;;9.15;58.19;99395.47;5071432;28;20192;-73
2021/12/09 08:17:12;;;;;;;29.90;20.90;;;;;;;9.25;57.74;99403.91;5071603;28;20269;-73
2021/12/09 08:19:39;;;;;;;31.17;21.87;;;;;;;9.30;58.38;99404.97;5072945;28;20633;-72
2021/12/09 08:22:08;;;;;;;30.43;20.67;;;;;;;9.57;58.34;99401.56;5073109;28;20351;-72
2021/12/09 08:24:35;;;;;;;31.83;19.80;;;;;;;9.90;55.82;99415.06;5071900;28;20257;-72
2021/12/09 08:27:01;;;;;;;26.17;19.30;;;;;;;10.10;55.50;99416.84;5073016;28;20270;-74
2021/12/09 08:29:28;;;;;;;34.90;21.47;;;;;;;10.23;55.38;99413.47;5072670;28;20249;-81
2021/12/09 08:31:55;;;;;;;32.20;20.87;;;;;;;10.27;55.30;99399.63;5072826;28;20671;-80
2021/12/09 08:34:22;;;;;;;23.43;19.13;;;;;;;10.28;54.68;99395.94;5072075;28;20249;-74
2021/12/09 08:36:49;;;;;;;28.33;19.33;;;;;;;10.40;55.64;99404.16;5066958;28;20261;-77
2021/12/09 08:39:17;;;;;;;27.73;20.40;;;;;;;10.61;54.32;99390.75;5052476;28;20745;-73
2021/12/09 08:41:45;;;;;;;34.90;20.93;;;;;;;10.71;53.60;99393.88;5070168;28;20224;-75
2021/12/09 08:44:12;;;;;;;63.03;25.47;;;;;;;10.79;52.97;99394.50;5072882;28;20192;-74
2021/12/09 08:46:39;;;;;;;46.77;26.33;;;;;;;10.90;52.99;99390.44;5073449;28;20245;-76
2021/12/09 08:49:08;;;;;;;31.47;21.17;;;;;;;11.22;52.56;99395.03;5072149;28;20200;-72
2021/12/09 08:51:35;;;;;;;30.53;22.10;;;;;;;11.31;50.85;99390.34;5072474;28;20199;-75
2021/12/09 08:54:01;;;;;;;33.90;23.53;;;;;;;11.30;50.55;99391.38;5072496;28;20266;-73
2021/12/09 08:56:29;;;;;;;34.97;20.83;;;;;;;11.25;51.63;99383.97;5072651;28;20222;-72
2021/12/09 08:58:57;;;;;;;61.13;22.73;;;;;;;11.08;52.68;99382.75;5072489;28;20565;-74
2021/12/09 09:01:23;;;;;;;30.07;21.40;;;;;;;11.09;51.10;99376.41;5072343;28;20616;-74
2021/12/09 09:03:50;;;;;;;28.90;20.30;;;;;;;11.31;51.23;99369.06;5071207;28;20206;-74
2021/12/09 09:06:17;;;;;;;30.60;19.87;;;;;;;11.47;50.54;99374.78;5072147;28;20202;-83
2021/12/09 09:08:44;;;;;;;32.53;21.10;;;;;;;11.53;50.55;99365.19;5073195;28;20188;-80
2021/12/09 09:11:10;;;;;;;26.83;21.20;;;;;;;11.71;50.67;99355.56;5072763;28;20201;-78
2021/12/09 09:13:40;;;;;;;25.83;19.40;;;;;;;11.77;48.97;99351.28;5072191;28;20220;-79
2021/12/09 09:16:06;;;;;;;32.17;21.67;;;;;;;11.92;49.39;99352.66;5070707;28;20579;-78
2021/12/09 09:18:33;;;;;;;38.87;20.40;;;;;;;12.15;49.07;99350.38;5068501;28;20586;-78
2021/12/09 09:21:01;;;;;;;27.10;18.97;;;;;;;12.26;47.00;99338.25;5063618;28;20276;-78
2021/12/09 09:23:27;;;;;;;28.50;19.93;;;;;;;12.10;47.61;99312.91;5054647;28;20279;-80
2021/12/09 09:25:54;;;;;;;23.70;18.53;;;;;;;11.95;48.25;99333.63;5051890;28;20199;-83
2021/12/09 09:28:21;;;;;;;24.30;19.73;;;;;;;12.00;47.72;99341.00;5051967;28;20199;-76
2021/12/09 09:30:56;;;;;;;43.10;20.63;;;;;;;12.03;49.16;99332.59;5051756;28;20195;-76
2021/12/09 09:33:25;;;;;;;26.70;20.87;;;;;;;12.04;49.28;99313.75;5062443;28;20202;-75
2021/12/09 09:35:52;;;;;;;35.97;20.43;;;;;;;12.00;48.54;99317.84;5070184;28;20241;-75
2021/12/09 09:38:23;;;;;;;30.33;19.77;;;;;;;12.09;48.74;99313.13;5071372;28;20661;-77
2021/12/09 09:40:59;;;;;;;26.90;19.83;;;;;;;12.15;47.81;99313.09;5071833;28;20191;-78
2021/12/09 09:43:42;;;;;;;31.87;20.63;;;;;;;11.96;49.54;99303.31;5071698;28;20272;-77
2021/12/09 09:46:12;;;;;;;29.90;20.13;;;;;;;11.97;49.42;99310.28;5075897;28;20268;-84
2021/12/09 09:48:39;;;;;;;23.70;19.07;;;;;;;12.10;48.25;99299.59;5075907;28;20197;-77
2021/12/09 09:51:09;;;;;;;34.43;20.10;;;;;;;12.18;48.08;99295.88;5075688;28;20638;-78
2021/12/09 09:53:37;;;;;;;31.40;20.93;;;;;;;12.28;48.13;99302.41;5076282;28;20199;-85
2021/12/09 09:56:08;;;;;;;37.03;22.37;;;;;;;12.10;48.77;99298.78;5075469;28;20274;-84
2021/12/09 09:58:35;;;;;;;28.40;20.93;;;;;;;12.02;48.80;99302.50;5075655;28;20183;-80
2021/12/09 10:01:02;;;;;;;33.67;21.63;;;;;;;12.06;48.96;99301.06;5068766;28;20569;-79
2021/12/09 10:03:34;;;;;;;32.40;21.80;;;;;;;12.00;49.13;99293.88;5055131;28;20219;-78
2021/12/09 10:06:02;;;;;;;34.47;22.30;;;;;;;11.86;49.71;99291.47;5055149;28;20733;-80
2021/12/09 10:08:32;;;;;;;31.97;21.03;;;;;;;11.81;51.33;99289.47;5054730;28;20259;-79
2021/12/09 10:10:59;;;;;;;33.53;21.43;;;;;;;11.56;51.53;99291.09;5072357;28;20201;-79
2021/12/09 10:13:31;;;;;;;30.63;22.03;;;;;;;11.43;52.04;99307.06;5068382;28;20206;-80
2021/12/09 10:15:58;;;;;;;32.63;21.77;;;;;;;11.54;51.62;99287.00;5074765;28;20596;-79
2021/12/09 10:18:38;;;;;;;29.23;21.77;;;;;;;11.42;51.54;99281.50;5075100;28;20259;-80
2021/12/09 10:21:07;;;;;;;32.77;21.10;;;;;;;11.57;51.50;99265.31;5075276;28;20272;-84
2021/12/09 10:23:37;;;;;;;32.03;21.67;;;;;;;11.74;51.41;99264.69;5073289;28;20193;-83
2021/12/09 10:26:16;;;;;;;34.40;20.43;;;;;;;11.83;50.68;99252.78;5057557;28;20723;-78
2021/12/09 10:28:48;;;;;;;36.30;25.23;;;;;;;11.81;50.91;99252.22;5075330;28;20185;-76
2021/12/09 10:31:18;;;;;;;31.90;22.13;;;;;;;11.63;51.25;99254.69;5074045;28;20195;-75
2021/12/09 10:34:09;;;;;;;28.47;21.03;;;;;;;11.69;51.48;99259.19;5074582;28;20331;-74
2021/12/09 10:36:43;;;;;;;42.87;23.57;;;;;;;11.66;50.71;99248.97;5074819;28;20309;-75
2021/12/09 10:39:38;;;;;;;34.23;22.63;;;;;;;11.67;50.58;99245.28;5074646;28;20661;-77
2021/12/09 10:42:08;;;;;;;38.23;25.07;;;;;;;11.80;50.68;99234.59;5052599;28;20194;-75
2021/12/09 10:44:44;;;;;;;28.80;20.17;;;;;;;11.69;50.63;99227.28;5053905;28;20235;-75
2021/12/09 10:47:15;;;;;;;26.33;20.57;;;;;;;11.72;50.61;99232.16;5054512;28;20202;-74
2021/12/09 10:50:05;;;;;;;34.60;21.57;;;;;;;11.26;51.72;99226.09;5070572;28;20669;-76
2021/12/09 10:52:39;;;;;;;30.47;21.33;;;;;;;11.28;51.98;99228.53;5074468;28;20182;-74
2021/12/09 10:55:12;;;;;;;34.10;22.00;;;;;;;11.39;51.88;99225.25;5074299;28;20214;-74
2021/12/09 10:57:39;;;;;;;33.83;23.00;;;;;;;11.42;51.86;99235.47;5074293;28;20221;-78
2021/12/09 11:00:17;;;;;;;38.90;22.70;;;;;;;11.47;52.09;99228.50;5086098;28;20627;-74
2021/12/09 11:03:08;;;;;;;34.53;24.80;;;;;;;11.66;51.57;99222.34;5093154;28;20832;-74
2021/12/09 11:05:38;;;;;;;41.70;24.70;;;;;;;11.86;50.73;99225.78;5094497;28;20189;-75
2021/12/09 11:08:23;;;;;;;36.97;23.80;;;;;;;11.99;50.73;99208.91;5094539;28;20626;-74
2021/12/09 11:10:57;;;;;;;36.93;24.07;;;;;;;12.03;50.49;99208.28;5094772;28;20246;-76
2021/12/09 11:13:24;;;;;;;44.70;27.60;;;;;;;12.15;50.92;99214.59;5090102;28;20224;-75
2021/12/09 11:15:55;;;;;;;43.43;26.40;;;;;;;12.25;51.27;99212.25;5089205;28;20201;-79
2021/12/09 11:18:34;;;;;;;41.97;27.13;;;;;;;12.21;51.72;99200.41;5084312;28;20194;-76
2021/12/09 11:21:05;;;;;;;41.50;25.73;;;;;;;11.84;53.09;99198.53;5073574;28;20185;-78
2021/12/09 11:23:37;;;;;;;32.57;22.10;;;;;;;11.68;54.08;99185.72;5071963;28;20246;-82
2021/12/09 11:26:25;;;;;;;47.83;29.33;;;;;;;11.71;54.45;99187.97;5053546;28;21004;-75
2021/12/09 11:28:57;;;;;;;30.23;21.70;;;;;;;11.61;55.44;99176.94;5053719;28;20243;-80